createdAt,value
2022-08-25T00:00:22.178Z,13.88
2022-08-25T00:02:55.477Z,11.93
2022-08-25T00:05:33.444Z,11.30
2022-08-25T00:08:03.504Z,10.38
2022-08-25T00:10:34.922Z,9.45
2022-08-25T00:13:04.791Z,15.40
2022-08-25T00:15:33.619Z,12.55
2022-08-25T00:18:03.017Z,15.05
2022-08-25T00:20:32.558Z,9.48
2022-08-25T00:23:02.921Z,11.05
2022-08-25T00:25:32.950Z,11.45
2022-08-25T00:28:06.451Z,11.50
2022-08-25T00:30:37.068Z,11.45
2022-08-25T00:33:05.828Z,8.10
2022-08-25T00:35:35.436Z,12.52
2022-08-25T00:38:04.204Z,11.30
2022-08-25T00:40:34.690Z,7.78
2022-08-25T00:43:03.931Z,9.50
2022-08-25T00:45:32.507Z,9.88
2022-08-25T00:48:01.351Z,9.35
2022-08-25T00:50:34.171Z,9.40
2022-08-25T00:53:06.848Z,11.45
2022-08-25T00:55:42.242Z,8.35
2022-08-25T00:58:17.362Z,7.60
2022-08-25T01:00:50.663Z,7.63
2022-08-25T01:03:21.280Z,8.55
2022-08-25T01:05:55.398Z,8.48
2022-08-25T01:08:29.167Z,8.50
2022-08-25T01:11:04.883Z,9.38
2022-08-25T01:13:40.472Z,7.85
2022-08-25T01:16:10.147Z,10.32
2022-08-25T01:18:49.340Z,8.98
2022-08-25T01:21:22.469Z,7.63
2022-08-25T01:23:52.692Z,8.75
2022-08-25T01:26:30.605Z,8.38
2022-08-25T01:29:20.942Z,8.90
2022-08-25T01:31:50.933Z,7.13
2022-08-25T01:34:22.717Z,7.38
2022-08-25T01:36:53.362Z,7.63
2022-08-25T01:39:22.896Z,7.22
2022-08-25T01:42:10.652Z,6.88
2022-08-25T01:44:43.526Z,7.47
2022-08-25T01:47:13.665Z,6.78
2022-08-25T01:49:42.216Z,6.78
2022-08-25T01:52:21.314Z,7.43
2022-08-25T01:54:50.356Z,7.68
2022-08-25T01:57:19.297Z,8.90
2022-08-25T01:59:48.125Z,8.65
2022-08-25T02:02:18.275Z,8.27
2022-08-25T02:04:48.229Z,6.97
2022-08-25T02:07:18.307Z,6.65
2022-08-25T02:09:47.241Z,10.25
2022-08-25T02:12:15.849Z,8.48
2022-08-25T02:14:44.546Z,9.68
2022-08-25T02:17:13.212Z,11.65
2022-08-25T02:19:41.873Z,8.48
2022-08-25T02:22:10.943Z,9.95
2022-08-25T02:24:40.932Z,6.45
2022-08-25T02:27:10.712Z,8.77
2022-08-25T02:29:39.958Z,11.15
2022-08-25T02:32:09.320Z,8.10
2022-08-25T02:34:41.230Z,10.02
2022-08-25T02:37:09.928Z,10.82
2022-08-25T02:39:38.479Z,7.10
2022-08-25T02:42:08.868Z,10.90
2022-08-25T02:44:37.514Z,9.82
2022-08-25T02:47:06.564Z,12.68
2022-08-25T02:49:35.374Z,10.80
2022-08-25T02:52:05.416Z,8.60
2022-08-25T02:54:34.215Z,8.32
2022-08-25T02:57:03.115Z,9.70
2022-08-25T02:59:33.185Z,9.60
2022-08-25T03:02:01.822Z,10.93
2022-08-25T03:04:31.975Z,9.10
2022-08-25T03:07:00.985Z,10.82
2022-08-25T03:09:29.562Z,11.25
2022-08-25T03:12:03.149Z,9.80
2022-08-25T03:14:33.322Z,13.38
2022-08-25T03:17:02.182Z,13.95
2022-08-25T03:19:31.145Z,8.85
2022-08-25T03:22:00.210Z,9.40
2022-08-25T03:24:29.603Z,10.50
2022-08-25T03:26:57.303Z,9.27
2022-08-25T03:29:28.858Z,11.90
2022-08-25T03:32:00.387Z,7.28
2022-08-25T03:34:31.660Z,11.55
2022-08-25T03:37:00.431Z,9.38
2022-08-25T03:39:29.258Z,13.43
2022-08-25T03:41:58.115Z,15.80
2022-08-25T03:44:26.828Z,11.40
2022-08-25T03:46:55.401Z,12.15
2022-08-25T03:49:25.869Z,13.30
2022-08-25T03:51:56.159Z,12.02
2022-08-25T03:54:27.105Z,15.15
2022-08-25T03:56:56.644Z,10.60
2022-08-25T03:59:27.144Z,16.33
2022-08-25T04:01:55.774Z,15.85
2022-08-25T04:04:26.053Z,11.80
2022-08-25T04:06:54.651Z,16.00
2022-08-25T04:09:23.415Z,12.10
2022-08-25T04:11:52.929Z,15.30
2022-08-25T04:14:23.692Z,14.75
2022-08-25T04:16:54.008Z,16.83
2022-08-25T04:19:23.468Z,18.30
2022-08-25T04:21:56.633Z,18.25
2022-08-25T04:24:25.528Z,15.13
2022-08-25T04:26:54.813Z,19.13
2022-08-25T04:29:25.962Z,17.63
2022-08-25T04:31:56.367Z,17.42
2022-08-25T04:34:30.365Z,20.13
2022-08-25T04:37:03.535Z,16.30
2022-08-25T04:39:32.753Z,16.90
2022-08-25T04:42:02.412Z,14.93
2022-08-25T04:44:32.080Z,16.38
2022-08-25T04:47:02.301Z,18.90
2022-08-25T04:49:31.752Z,20.70
2022-08-25T04:52:01.757Z,17.77
2022-08-25T04:54:32.537Z,12.85
2022-08-25T04:57:06.943Z,17.80
2022-08-25T04:59:35.641Z,20.77
2022-08-25T05:02:05.719Z,13.60
2022-08-25T05:04:37.563Z,19.92
2022-08-25T05:07:07.992Z,17.58
2022-08-25T05:09:37.827Z,15.93
2022-08-25T05:12:07.577Z,18.20
2022-08-25T05:14:36.232Z,22.45
2022-08-25T05:17:04.968Z,15.10
2022-08-25T05:19:33.929Z,15.50
2022-08-25T05:22:02.512Z,20.45
2022-08-25T05:24:32.472Z,16.80
2022-08-25T05:27:01.738Z,15.13
2022-08-25T05:29:30.389Z,17.48
2022-08-25T05:31:59.011Z,14.18
2022-08-25T05:34:27.738Z,17.42
2022-08-25T05:37:00.116Z,11.93
2022-08-25T05:39:32.456Z,21.70
2022-08-25T05:42:02.647Z,18.10
2022-08-25T05:44:31.485Z,22.92
2022-08-25T05:47:00.064Z,22.98
2022-08-25T05:49:28.941Z,15.80
2022-08-25T05:51:57.580Z,16.88
2022-08-25T05:54:27.019Z,15.18
2022-08-25T05:56:56.080Z,18.15
2022-08-25T05:59:26.278Z,18.77
2022-08-25T06:02:12.424Z,16.13
2022-08-25T06:04:41.433Z,15.02
2022-08-25T06:07:11.320Z,23.38
2022-08-25T06:09:40.380Z,17.77
2022-08-25T06:12:10.292Z,16.17
2022-08-25T06:14:40.414Z,18.52
2022-08-25T06:17:09.674Z,20.52
2022-08-25T06:19:38.488Z,15.23
2022-08-25T06:22:09.970Z,14.27
2022-08-25T06:24:38.543Z,19.90
2022-08-25T06:27:07.376Z,16.42
2022-08-25T06:29:36.078Z,11.38
2022-08-25T06:32:08.684Z,23.67
2022-08-25T06:34:37.498Z,23.15
2022-08-25T06:37:06.265Z,15.50
2022-08-25T06:39:34.988Z,17.08
2022-08-25T06:42:03.678Z,20.23
2022-08-25T06:44:32.439Z,22.20
2022-08-25T06:47:01.093Z,15.43
2022-08-25T06:49:35.591Z,21.35
2022-08-25T06:52:05.956Z,15.75
2022-08-25T06:54:34.656Z,14.00
2022-08-25T06:57:03.661Z,13.32
2022-08-25T06:59:32.813Z,18.67
2022-08-25T07:02:05.883Z,14.88
2022-08-25T07:04:37.656Z,18.77
2022-08-25T07:07:06.458Z,17.85
2022-08-25T07:09:39.041Z,16.52
2022-08-25T07:12:09.028Z,14.40
2022-08-25T07:14:39.071Z,17.00
2022-08-25T07:17:10.486Z,21.00
2022-08-25T07:19:42.717Z,13.23
2022-08-25T07:22:11.307Z,14.45
2022-08-25T07:24:39.977Z,12.05
2022-08-25T07:27:08.927Z,17.48
2022-08-25T07:29:42.601Z,12.68
2022-08-25T07:32:11.428Z,19.10
2022-08-25T07:34:58.981Z,15.32
2022-08-25T07:40:20.034Z,15.75
2022-08-25T07:42:50.364Z,14.00
2022-08-25T07:48:12.183Z,12.48
2022-08-25T07:50:47.047Z,16.30
2022-08-25T07:53:18.032Z,13.57
2022-08-25T07:55:47.209Z,14.65
2022-08-25T07:58:16.635Z,18.00
2022-08-25T08:00:49.678Z,16.45
2022-08-25T08:03:42.252Z,18.85
2022-08-25T08:06:13.951Z,16.45
2022-08-25T08:08:45.654Z,15.32
2022-08-25T08:11:18.384Z,15.07
2022-08-25T08:13:50.842Z,15.60
2022-08-25T08:16:24.180Z,18.45
2022-08-25T08:18:53.154Z,13.20
2022-08-25T08:21:27.400Z,14.35
2022-08-25T08:23:59.008Z,15.48
2022-08-25T08:26:48.155Z,10.68
2022-08-25T08:29:20.252Z,15.55
2022-08-25T08:31:51.231Z,14.90
2022-08-25T08:34:20.164Z,13.88
2022-08-25T08:36:55.061Z,14.85
2022-08-25T08:39:23.772Z,14.10
2022-08-25T08:42:22.240Z,13.13
2022-08-25T08:45:12.590Z,13.27
2022-08-25T08:47:56.442Z,17.75
2022-08-25T08:50:35.778Z,15.45
2022-08-25T08:53:12.919Z,12.35
2022-08-25T08:55:52.316Z,11.65
2022-08-25T08:58:27.248Z,14.23
2022-08-25T09:00:59.317Z,11.95
2022-08-25T09:03:39.766Z,12.80
2022-08-25T09:06:14.824Z,13.23
2022-08-25T09:08:46.096Z,14.15
2022-08-25T09:11:32.207Z,12.32
2022-08-25T09:14:30.308Z,11.32
2022-08-25T09:17:08.123Z,7.90
2022-08-25T09:20:18.219Z,10.73
2022-08-25T09:23:02.495Z,11.10
2022-08-25T09:25:52.419Z,11.07
2022-08-25T09:28:31.496Z,10.55
2022-08-25T09:31:04.237Z,10.15
2022-08-25T09:33:36.011Z,12.10
2022-08-25T09:36:06.091Z,10.50
2022-08-25T09:38:38.486Z,9.60
2022-08-25T09:41:11.397Z,8.13
2022-08-25T09:43:44.735Z,11.82
2022-08-25T09:46:20.929Z,8.98
2022-08-25T09:48:56.019Z,10.68
2022-08-25T09:51:42.563Z,11.13
2022-08-25T09:54:25.636Z,9.95
2022-08-25T09:57:08.615Z,13.48
2022-08-25T09:59:38.753Z,10.55
2022-08-25T10:02:26.477Z,16.10
2022-08-25T10:04:57.464Z,14.57
2022-08-25T10:07:32.328Z,13.38
2022-08-25T10:10:04.124Z,9.48
2022-08-25T10:12:51.500Z,12.13
2022-08-25T10:15:30.449Z,7.30
2022-08-25T10:18:25.611Z,8.93
2022-08-25T10:21:12.984Z,10.25
2022-08-25T10:23:49.381Z,8.07
2022-08-25T10:26:47.689Z,9.73
2022-08-25T10:29:40.820Z,6.88
2022-08-25T10:32:23.590Z,8.45
2022-08-25T10:34:57.191Z,8.88
2022-08-25T10:37:40.178Z,8.65
2022-08-25T10:40:21.768Z,8.43
2022-08-25T10:43:07.908Z,8.80
2022-08-25T10:45:48.597Z,7.78
2022-08-25T10:48:47.740Z,7.93
2022-08-25T10:51:39.650Z,6.25
2022-08-25T10:54:30.864Z,10.27
2022-08-25T10:57:14.127Z,6.53
2022-08-25T11:00:08.708Z,6.80
2022-08-25T11:03:22.037Z,7.07
2022-08-25T11:06:01.631Z,7.97
2022-08-25T11:08:38.851Z,9.80
2022-08-25T11:11:21.552Z,6.90
2022-08-25T11:13:57.415Z,6.35
2022-08-25T11:16:39.728Z,9.38
2022-08-25T11:19:20.232Z,5.40
2022-08-25T11:22:02.922Z,6.03
2022-08-25T11:24:49.998Z,6.22
2022-08-25T11:27:24.519Z,7.15
2022-08-25T11:30:05.953Z,5.13
2022-08-25T11:32:36.931Z,9.77
2022-08-25T11:35:12.689Z,8.82
2022-08-25T11:38:00.384Z,7.72
2022-08-25T11:40:44.475Z,8.27
2022-08-25T11:43:40.805Z,4.93
2022-08-25T11:46:33.774Z,5.32
2022-08-25T11:49:36.411Z,10.60
2022-08-25T11:52:15.193Z,5.70
2022-08-25T11:54:46.485Z,9.13
2022-08-25T11:57:25.841Z,5.63
2022-08-25T12:00:10.764Z,7.53
2022-08-25T12:02:43.723Z,7.93
2022-08-25T12:05:47.322Z,5.70
2022-08-25T12:08:52.622Z,6.60
2022-08-25T12:11:54.708Z,7.32
2022-08-25T12:14:46.963Z,6.28
2022-08-25T12:17:25.518Z,17.50
2022-08-25T12:19:59.546Z,8.65
2022-08-25T12:23:00.152Z,7.25
2022-08-25T12:25:47.145Z,6.38
2022-08-25T12:28:49.146Z,27.10
2022-08-25T12:32:04.596Z,10.10
2022-08-25T12:35:29.489Z,5.28
2022-08-25T12:38:09.073Z,6.80
2022-08-25T12:40:58.551Z,5.18
2022-08-25T12:43:33.287Z,9.30
2022-08-25T12:46:39.589Z,5.72
2022-08-25T12:49:32.294Z,5.03
2022-08-25T12:52:08.327Z,5.78
2022-08-25T12:54:49.824Z,7.18
2022-08-25T12:57:42.580Z,6.93
2022-08-25T13:00:22.445Z,6.90
2022-08-25T13:03:24.870Z,4.97
2022-08-25T13:06:26.752Z,5.35
2022-08-25T13:09:46.457Z,6.40
2022-08-25T13:12:22.583Z,7.07
2022-08-25T13:14:57.599Z,5.20
2022-08-25T13:17:33.870Z,6.85
2022-08-25T13:20:25.737Z,5.75
2022-08-25T13:23:04.051Z,6.25
2022-08-25T13:25:34.709Z,7.22
2022-08-25T13:28:11.085Z,5.32
2022-08-25T13:30:41.736Z,6.22
2022-08-25T13:33:22.352Z,5.28
2022-08-25T13:36:15.243Z,5.18
2022-08-25T13:38:46.703Z,7.25
2022-08-25T13:41:29.477Z,4.82
2022-08-25T13:44:02.530Z,5.45
2022-08-25T13:46:35.563Z,6.07
2022-08-25T13:49:07.149Z,4.50
2022-08-25T13:51:39.263Z,5.72
2022-08-25T13:54:24.677Z,4.38
2022-08-25T13:56:54.711Z,4.78
2022-08-25T13:59:28.051Z,7.35
2022-08-25T14:01:59.831Z,5.95
2022-08-25T14:04:33.637Z,3.75
2022-08-25T14:07:26.191Z,4.95
2022-08-25T14:09:58.461Z,4.80
2022-08-25T14:12:37.668Z,4.68
2022-08-25T14:15:27.260Z,7.32
2022-08-25T14:18:07.392Z,5.25
2022-08-25T14:20:38.971Z,4.95
2022-08-25T14:23:19.047Z,4.03
2022-08-25T14:25:48.795Z,3.92
2022-08-25T14:28:22.799Z,3.83
2022-08-25T14:30:55.654Z,5.90
2022-08-25T14:33:34.178Z,7.32
2022-08-25T14:36:05.377Z,6.20
2022-08-25T14:38:36.954Z,4.45
2022-08-25T14:43:37.203Z,8.63
2022-08-25T14:46:17.637Z,6.05
2022-08-25T14:48:55.493Z,4.00
2022-08-25T14:51:26.333Z,5.40
2022-08-25T14:54:04.880Z,5.32
2022-08-25T14:56:35.223Z,5.18
2022-08-25T14:59:05.298Z,4.30
2022-08-25T15:01:34.066Z,3.92
2022-08-25T15:04:10.546Z,4.68
2022-08-25T15:06:43.628Z,5.40
2022-08-25T15:09:16.502Z,3.45
2022-08-25T15:11:50.681Z,5.97
2022-08-25T15:14:28.801Z,9.02
2022-08-25T15:17:03.478Z,6.50
2022-08-25T15:19:34.369Z,4.18
2022-08-25T15:22:02.955Z,5.47
2022-08-25T15:24:36.098Z,4.20
2022-08-25T15:27:10.042Z,5.88
2022-08-25T15:29:40.448Z,5.65
2022-08-25T15:32:10.488Z,6.50
2022-08-25T15:34:40.546Z,4.15
2022-08-25T15:37:13.124Z,6.05
2022-08-25T15:39:44.597Z,4.57
2022-08-25T15:42:14.145Z,4.07
2022-08-25T15:44:52.933Z,4.63
2022-08-25T15:47:22.535Z,5.60
2022-08-25T15:50:03.738Z,4.18
2022-08-25T15:52:44.573Z,4.03
2022-08-25T15:55:15.660Z,4.43
2022-08-25T15:57:44.903Z,5.68
2022-08-25T16:00:16.755Z,5.10
2022-08-25T16:02:46.608Z,6.85
2022-08-25T16:05:16.981Z,4.65
2022-08-25T16:07:51.543Z,3.90
2022-08-25T16:10:21.237Z,5.95
2022-08-25T16:12:50.638Z,5.88
2022-08-25T16:15:23.942Z,6.55
2022-08-25T16:17:59.812Z,4.68
2022-08-25T16:20:30.829Z,4.82
2022-08-25T16:23:02.507Z,5.80
2022-08-25T16:25:32.843Z,6.68
2022-08-25T16:28:05.516Z,5.00
2022-08-25T16:30:34.257Z,7.68
2022-08-25T16:33:03.702Z,5.95
2022-08-25T16:35:36.576Z,7.05
2022-08-25T16:38:09.318Z,5.45
2022-08-25T16:40:43.349Z,5.32
2022-08-25T16:43:13.475Z,5.15
2022-08-25T16:45:42.128Z,4.95
2022-08-25T16:48:10.803Z,6.90
2022-08-25T16:50:41.938Z,4.13
2022-08-25T16:53:27.763Z,4.35
2022-08-25T16:56:02.831Z,4.30
2022-08-25T16:58:33.204Z,5.72
2022-08-25T17:01:10.099Z,5.10
2022-08-25T17:03:44.131Z,5.05
2022-08-25T17:06:15.169Z,7.07
2022-08-25T17:08:44.145Z,9.73
2022-08-25T17:11:17.145Z,10.48
2022-08-25T17:13:50.327Z,9.50
2022-08-25T17:16:22.310Z,9.63
2022-08-25T17:18:51.021Z,5.72
2022-08-25T17:21:24.451Z,7.57
2022-08-25T17:23:55.676Z,6.35
2022-08-25T17:26:27.967Z,5.65
2022-08-25T17:28:59.330Z,7.88
2022-08-25T17:31:30.863Z,5.20
2022-08-25T17:33:59.923Z,5.18
2022-08-25T17:36:31.459Z,5.10
2022-08-25T17:39:00.491Z,5.47
2022-08-25T17:41:29.103Z,5.25
2022-08-25T17:43:58.793Z,6.28
2022-08-25T17:46:28.384Z,5.15
2022-08-25T17:48:57.638Z,6.38
2022-08-25T17:51:27.239Z,5.00
2022-08-25T17:54:01.839Z,6.65
2022-08-25T17:56:32.460Z,8.25
2022-08-25T17:59:02.115Z,8.40
2022-08-25T18:01:33.841Z,7.18
2022-08-25T18:04:02.657Z,8.18
2022-08-25T18:06:34.066Z,7.38
2022-08-25T18:09:06.211Z,6.00
2022-08-25T18:11:34.790Z,6.93
2022-08-25T18:14:03.585Z,6.07
2022-08-25T18:16:33.702Z,8.15
2022-08-25T18:19:03.025Z,7.55
2022-08-25T18:21:35.465Z,5.95
2022-08-25T18:24:06.256Z,7.18
2022-08-25T18:26:35.606Z,6.10
2022-08-25T18:29:05.147Z,5.85
2022-08-25T18:31:33.933Z,5.30
2022-08-25T18:34:05.162Z,6.53
2022-08-25T18:36:38.749Z,8.70
2022-08-25T18:39:30.453Z,6.57
2022-08-25T18:42:02.353Z,6.88
2022-08-25T18:44:31.742Z,7.13
2022-08-25T18:47:00.379Z,5.80
2022-08-25T18:49:37.221Z,10.13
2022-08-25T18:52:07.512Z,5.97
2022-08-25T18:54:39.195Z,6.57
2022-08-25T18:57:09.335Z,6.32
2022-08-25T18:59:38.247Z,5.72
2022-08-25T19:02:10.005Z,6.70
2022-08-25T19:04:41.920Z,5.60
2022-08-25T19:07:12.216Z,6.10
2022-08-25T19:09:42.853Z,6.10
2022-08-25T19:12:22.077Z,7.32
2022-08-25T19:14:51.245Z,7.25
2022-08-25T19:17:19.991Z,7.65
2022-08-25T19:19:53.499Z,7.15
2022-08-25T19:22:40.547Z,6.38
2022-08-25T19:25:13.162Z,7.03
2022-08-25T19:27:43.507Z,7.18
2022-08-25T19:30:16.179Z,9.23
2022-08-25T19:32:46.617Z,10.43
2022-08-25T19:35:30.401Z,6.70
2022-08-25T19:38:02.442Z,6.55
2022-08-25T19:40:38.980Z,5.95
2022-08-25T19:43:08.787Z,6.75
2022-08-25T19:45:38.426Z,8.15
2022-08-25T19:48:08.720Z,5.97
2022-08-25T19:50:38.404Z,10.75
2022-08-25T19:53:09.339Z,5.78
2022-08-25T19:55:43.953Z,6.95
2022-08-25T19:58:13.504Z,13.15
2022-08-25T20:00:42.376Z,9.65
2022-08-25T20:03:11.118Z,9.38
2022-08-25T20:05:40.278Z,7.82
2022-08-25T20:08:09.136Z,8.75
2022-08-25T20:10:41.782Z,7.13
2022-08-25T20:13:12.436Z,6.93
2022-08-25T20:15:41.903Z,6.93
2022-08-25T20:18:10.688Z,7.93
2022-08-25T20:20:39.468Z,6.75
2022-08-25T20:23:25.981Z,9.10
2022-08-25T20:25:56.662Z,9.43
2022-08-25T20:28:26.723Z,6.65
2022-08-25T20:30:56.586Z,8.20
2022-08-25T20:33:25.336Z,7.13
2022-08-25T20:35:54.055Z,7.30
2022-08-25T20:38:24.645Z,8.40
2022-08-25T20:40:54.730Z,8.93
2022-08-25T20:43:23.408Z,8.02
2022-08-25T20:46:01.582Z,7.55
2022-08-25T20:48:30.324Z,11.82
2022-08-25T20:50:59.165Z,6.57
2022-08-25T20:53:28.052Z,8.48
2022-08-25T20:55:57.345Z,7.15
2022-08-25T20:58:26.505Z,8.57
2022-08-25T21:00:57.003Z,6.68
2022-08-25T21:03:25.599Z,6.72
2022-08-25T21:05:54.386Z,6.88
2022-08-25T21:08:23.634Z,9.05
2022-08-25T21:10:52.582Z,7.95
2022-08-25T21:13:21.312Z,6.93
2022-08-25T21:15:51.472Z,6.70
2022-08-25T21:18:21.756Z,6.38
2022-08-25T21:20:50.421Z,6.57
2022-08-25T21:23:21.257Z,6.28
2022-08-25T21:25:50.043Z,9.02
2022-08-25T21:28:19.685Z,7.70
2022-08-25T21:30:50.122Z,6.38
2022-08-25T21:33:20.273Z,6.65
2022-08-25T21:35:55.003Z,6.95
2022-08-25T21:38:23.838Z,9.07
2022-08-25T21:40:52.515Z,8.10
2022-08-25T21:43:21.145Z,7.60
2022-08-25T21:45:49.846Z,6.63
2022-08-25T21:48:18.616Z,7.22
2022-08-25T21:50:48.790Z,8.90
2022-08-25T21:53:17.375Z,7.43
2022-08-25T21:55:45.966Z,9.52
2022-08-25T21:58:14.648Z,7.00
2022-08-25T22:00:44.753Z,8.15
2022-08-25T22:03:13.379Z,7.75
2022-08-25T22:05:42.036Z,7.70
2022-08-25T22:08:16.734Z,9.13
2022-08-25T22:10:48.163Z,9.75
2022-08-25T22:13:16.861Z,7.22
2022-08-25T22:15:47.108Z,7.50
2022-08-25T22:18:21.069Z,7.65
2022-08-25T22:20:50.524Z,7.68
2022-08-25T22:23:21.202Z,10.63
2022-08-25T22:25:49.929Z,7.40
2022-08-25T22:28:19.631Z,7.55
2022-08-25T22:30:48.926Z,7.13
2022-08-25T22:33:17.984Z,9.70
2022-08-25T22:35:47.395Z,12.23
2022-08-25T22:38:15.956Z,8.30
2022-08-25T22:40:47.196Z,8.93
2022-08-25T22:43:16.052Z,10.82
2022-08-25T22:45:44.863Z,7.88
2022-08-25T22:48:13.515Z,7.43
2022-08-25T22:50:42.145Z,8.48
2022-08-25T22:53:10.951Z,9.32
2022-08-25T22:55:44.587Z,9.80
2022-08-25T22:58:16.495Z,8.95
2022-08-25T23:00:45.042Z,7.82
2022-08-25T23:03:15.354Z,8.20
2022-08-25T23:05:44.056Z,11.15
2022-08-25T23:08:13.766Z,8.77
2022-08-25T23:10:50.185Z,7.57
2022-08-25T23:13:34.594Z,10.80
2022-08-25T23:16:06.984Z,7.90
2022-08-25T23:18:43.063Z,6.93
2022-08-25T23:21:35.036Z,7.47
2022-08-25T23:24:07.778Z,8.07
2022-08-25T23:26:37.334Z,7.70
2022-08-25T23:29:17.745Z,7.05
2022-08-25T23:31:49.170Z,6.35
2022-08-25T23:34:18.311Z,6.97
2022-08-25T23:36:47.498Z,6.38
2022-08-25T23:39:16.098Z,6.00
2022-08-25T23:41:44.779Z,6.38
2022-08-25T23:44:17.186Z,5.90
2022-08-25T23:46:47.109Z,6.30
2022-08-25T23:49:18.196Z,5.53
2022-08-25T23:51:48.815Z,6.25
2022-08-25T23:54:20.122Z,6.38
2022-08-25T23:56:51.624Z,5.93
2022-08-25T23:59:24.520Z,6.05
